Time;durP1;ratioP1;P1;durP2;ratioP2;P2;SDS_P1;SDS_P2;PMS_P1;PMS_P2;Temp;Humidity;BMP_temperature;BMP_pressure;BME280_temperature;BME280_humidity;BME280_pressure;Samples;Min_cycle;Max_cycle;Signal;HPM_P1;HPM_P2
2023/12/17 00:01:07;;;;;;;;;73.75;55.50;;;;;7.79;71.32;103823.09;5059190;28;45396;-56
2023/12/17 00:03:32;;;;;;;;;75.00;56.25;;;;;7.80;71.30;103816.03;5059018;28;45382;-55
2023/12/17 00:05:57;;;;;;;;;74.00;56.00;;;;;7.77;71.46;103812.47;5058115;28;67201;-56
2023/12/17 00:08:23;;;;;;;;;65.75;53.50;;;;;7.75;71.61;103805.38;5090829;27;70547;-56
2023/12/17 00:10:52;;;;;;;;;74.00;56.00;;;;;7.73;71.78;103809.78;5059215;28;45428;-56
2023/12/17 00:13:18;;;;;;;;;70.75;55.00;;;;;7.70;71.57;103813.28;5054855;28;45477;-56
2023/12/17 00:15:43;;;;;;;;;72.25;56.00;;;;;7.68;71.97;103815.03;5058667;28;45417;-56
2023/12/17 00:18:10;;;;;;;;;73.00;57.50;;;;;7.66;72.13;103818.53;5092248;27;45448;-56
2023/12/17 00:20:36;;;;;;;;;75.00;56.50;;;;;7.65;72.42;103817.63;5057856;28;45421;-56
2023/12/17 00:23:01;;;;;;;;;69.50;55.50;;;;;7.62;72.31;103813.19;5057803;28;72224;-56
2023/12/17 00:25:26;;;;;;;;;75.00;56.25;;;;;7.60;72.14;103819.34;5058762;28;45863;-57
2023/12/17 00:27:52;;;;;;;;;72.25;55.75;;;;;7.59;72.44;103820.25;5057990;28;69337;-57
2023/12/17 00:30:17;;;;;;;;;70.50;55.00;;;;;7.58;72.31;103823.75;5057405;28;75658;-57
2023/12/17 00:32:42;;;;;;;;;71.50;54.50;;;;;7.57;72.49;103828.19;5058159;28;71563;-56
2023/12/17 00:35:08;;;;;;;;;72.00;57.25;;;;;7.55;72.96;103829.03;5057691;28;69534;-55
2023/12/17 00:37:33;;;;;;;;;70.25;55.25;;;;;7.52;72.38;103834.28;5057471;28;70573;-55
2023/12/17 00:39:58;;;;;;;;;68.50;54.00;;;;;7.51;72.67;103837.78;5058572;28;55195;-56
2023/12/17 00:42:24;;;;;;;;;68.75;53.50;;;;;7.49;72.35;103842.22;5057613;28;73166;-56
2023/12/17 00:44:49;;;;;;;;;65.00;50.75;;;;;7.47;72.64;103842.19;5040723;28;45851;-56
2023/12/17 00:47:14;;;;;;;;;64.50;50.75;;;;;7.45;72.82;103839.50;5056995;28;45357;-56
2023/12/17 00:49:40;;;;;;;;;68.50;53.25;;;;;7.44;72.67;103835.09;5090969;27;57899;-57
2023/12/17 00:52:05;;;;;;;;;62.50;49.50;;;;;7.44;72.83;103839.50;5058452;28;54699;-57
2023/12/17 00:54:30;;;;;;;;;65.25;52.00;;;;;7.43;72.88;103843.00;5057270;28;67295;-57
2023/12/17 00:56:56;;;;;;;;;68.75;54.00;;;;;7.40;73.01;103849.16;5056684;28;68683;-57
2023/12/17 00:59:21;;;;;;;;;75.00;55.25;;;;;7.38;73.25;103847.34;5055763;28;73591;-57
2023/12/17 01:01:46;;;;;;;;;72.25;55.50;;;;;7.35;73.29;103855.28;5057653;28;73167;-57
2023/12/17 01:04:12;;;;;;;;;69.75;54.25;;;;;7.32;72.94;103864.06;5057610;28;45236;-57
2023/12/17 01:06:37;;;;;;;;;69.50;54.75;;;;;7.30;73.12;103871.13;5058026;28;70359;-56
2023/12/17 01:09:02;;;;;;;;;65.25;51.50;;;;;7.26;73.16;103874.56;5054728;28;75627;-56
2023/12/17 01:11:28;;;;;;;;;66.25;53.25;;;;;7.22;73.27;103871.03;5057196;28;70586;-56
2023/12/17 01:13:53;;;;;;;;;65.75;51.75;;;;;7.19;73.50;103873.63;5085770;27;45357;-56
2023/12/17 01:16:18;;;;;;;;;59.00;47.50;;;;;7.18;73.44;103869.19;5057872;28;60422;-60
2023/12/17 01:18:43;;;;;;;;;67.75;52.00;;;;;7.15;73.57;103871.81;5056784;28;74527;-56
2023/12/17 01:21:09;;;;;;;;;62.75;50.50;;;;;7.11;73.53;103870.84;5055516;28;61258;-56
2023/12/17 01:23:36;;;;;;;;;62.75;48.25;;;;;7.09;73.38;103867.31;5083870;27;69446;-57
2023/12/17 01:26:01;;;;;;;;;57.75;47.00;;;;;7.07;73.89;103860.22;5058540;28;45284;-56
2023/12/17 01:28:26;;;;;;;;;64.25;50.75;;;;;7.05;73.93;103862.88;5085583;27;45404;-56
2023/12/17 01:30:52;;;;;;;;;60.75;48.25;;;;;7.06;73.83;103871.69;5058255;28;45462;-56
2023/12/17 01:33:17;;;;;;;;;51.75;44.00;;;;;7.03;73.85;103859.28;5058376;28;45394;-57
2023/12/17 01:35:42;;;;;;;;;61.25;47.50;;;;;7.04;73.85;103849.56;5060965;28;63485;-56
2023/12/17 01:38:08;;;;;;;;;58.25;45.25;;;;;7.03;73.93;103855.75;5056885;28;45478;-56
2023/12/17 01:40:33;;;;;;;;;57.50;47.25;;;;;7.01;74.01;103846.91;5093060;27;70541;-55
2023/12/17 01:42:58;;;;;;;;;58.00;46.75;;;;;7.00;73.75;103848.69;5059283;28;45701;-55
2023/12/17 01:45:24;;;;;;;;;58.75;47.50;;;;;7.00;73.91;103848.69;5061022;28;45545;-56
2023/12/17 01:47:49;;;;;;;;;60.25;48.25;;;;;7.00;74.00;103845.13;5088700;27;70092;-56
2023/12/17 01:50:15;;;;;;;;;59.50;46.25;;;;;7.00;73.88;103843.38;5059535;28;71745;-55
2023/12/17 01:52:41;;;;;;;;;62.75;47.25;;;;;7.00;73.85;103843.38;5057965;28;48154;-56
2023/12/17 01:55:07;;;;;;;;;63.50;48.50;;;;;7.00;73.74;103843.38;5092988;27;68147;-56
2023/12/17 01:57:33;;;;;;;;;49.50;37.50;;;;;6.98;73.96;103847.75;5052796;28;46170;-56
2023/12/17 01:59:59;;;;;;;;;55.75;42.25;;;;;6.95;74.05;103837.13;5093795;27;45702;-57
2023/12/17 02:02:24;;;;;;;;;59.75;46.00;;;;;6.95;74.30;103839.78;5053507;28;62062;-56
2023/12/17 02:04:50;;;;;;;;;56.00;44.00;;;;;6.94;74.26;103845.94;5060195;28;68937;-55
2023/12/17 02:07:16;;;;;;;;;50.75;43.00;;;;;6.94;74.26;103846.81;5090544;27;45696;-57
2023/12/17 02:09:41;;;;;;;;;52.25;43.25;;;;;6.93;74.25;103834.44;5061022;28;45846;-55
2023/12/17 02:12:07;;;;;;;;;52.50;43.75;;;;;6.92;73.93;103834.44;5059803;28;45432;-56
2023/12/17 02:14:32;;;;;;;;;58.00;45.50;;;;;6.90;74.02;103837.06;5060695;28;45442;-56
2023/12/17 02:16:57;;;;;;;;;50.00;41.50;;;;;6.88;74.26;103833.53;5059716;28;74392;-55
2023/12/17 02:19:23;;;;;;;;;51.00;41.00;;;;;6.85;74.37;103845.81;5059826;28;45382;-56
2023/12/17 02:21:48;;;;;;;;;53.25;43.25;;;;;6.84;74.38;103833.44;5060076;28;68842;-55
2023/12/17 02:24:14;;;;;;;;;51.50;43.00;;;;;6.83;74.50;103832.56;5060426;28;45492;-56
2023/12/17 02:26:42;;;;;;;;;51.25;41.75;;;;;6.80;74.42;103821.91;5059601;28;75872;-55
2023/12/17 02:29:08;;;;;;;;;54.00;44.25;;;;;6.78;74.61;103819.25;5060461;28;45423;-57
2023/12/17 02:31:33;;;;;;;;;57.25;43.50;;;;;6.78;74.53;103821.03;5060382;28;45304;-56
2023/12/17 02:33:58;;;;;;;;;54.25;42.00;;;;;6.75;74.43;103816.59;5059728;28;67946;-56
2023/12/17 02:36:24;;;;;;;;;53.25;43.75;;;;;6.74;74.46;103820.09;5058894;28;75636;-56
2023/12/17 02:38:49;;;;;;;;;52.75;41.50;;;;;6.70;74.75;103809.44;5059919;28;65227;-57
2023/12/17 02:41:14;;;;;;;;;47.00;40.25;;;;;6.68;74.48;103803.25;5059846;28;61920;-57
2023/12/17 02:43:40;;;;;;;;;49.75;41.75;;;;;6.66;74.62;103799.66;5059041;28;67701;-56
2023/12/17 02:46:05;;;;;;;;;51.50;42.00;;;;;6.64;74.82;103799.66;5082105;27;49071;-57
2023/12/17 02:48:30;;;;;;;;;50.00;40.00;;;;;6.62;74.68;103794.34;5060334;28;45649;-56
2023/12/17 02:50:56;;;;;;;;;53.00;42.00;;;;;6.61;74.99;103791.69;5059519;28;64805;-57
2023/12/17 02:53:21;;;;;;;;;51.75;41.00;;;;;6.61;74.78;103791.69;5057955;28;45612;-55
2023/12/17 02:55:46;;;;;;;;;50.25;41.25;;;;;6.59;74.97;103786.34;5059461;28;46575;-56
2023/12/17 02:58:12;;;;;;;;;50.00;40.00;;;;;6.58;74.93;103791.63;5058867;28;72264;-56
2023/12/17 03:00:37;;;;;;;;;49.50;42.25;;;;;6.56;74.87;103780.16;5058958;28;45821;-55
2023/12/17 03:03:02;;;;;;;;;55.50;45.00;;;;;6.54;74.99;103782.75;5060134;28;45398;-56
2023/12/17 03:05:28;;;;;;;;;52.50;41.25;;;;;6.53;75.00;103773.06;5059075;28;46498;-57
2023/12/17 03:07:53;;;;;;;;;46.25;39.00;;;;;6.51;74.84;103761.56;5059436;28;72136;-56
2023/12/17 03:10:18;;;;;;;;;51.75;40.50;;;;;6.49;74.60;103754.47;5058191;28;45304;-56
2023/12/17 03:12:44;;;;;;;;;47.75;37.75;;;;;6.47;74.79;103746.53;5059167;28;70586;-56
2023/12/17 03:15:09;;;;;;;;;53.75;39.00;;;;;6.45;74.74;103740.31;5060009;28;45548;-56
2023/12/17 03:17:38;;;;;;;;;52.75;41.00;;;;;6.43;74.94;103745.56;5059821;28;45541;-56
2023/12/17 03:20:04;;;;;;;;;47.25;37.25;;;;;6.42;75.11;103743.78;5060210;28;45427;-57
2023/12/17 03:22:31;;;;;;;;;50.25;39.00;;;;;6.41;74.89;103734.09;5059599;28;45235;-57
2023/12/17 03:24:56;;;;;;;;;49.50;40.00;;;;;6.40;75.16;103736.72;5059539;28;46185;-56
2023/12/17 03:27:21;;;;;;;;;52.50;42.75;;;;;6.38;75.06;103731.41;5058690;28;69243;-57
2023/12/17 03:29:47;;;;;;;;;55.75;44.25;;;;;6.37;75.16;103739.31;5060078;28;45483;-57
2023/12/17 03:32:14;;;;;;;;;43.75;37.75;;;;;6.34;75.00;103734.88;5058975;28;56466;-57
2023/12/17 03:34:40;;;;;;;;;44.50;35.50;;;;;6.33;75.20;103727.81;5059034;28;45449;-56
2023/12/17 03:37:05;;;;;;;;;48.00;39.00;;;;;6.31;75.17;103734.84;5059912;28;45359;-57
2023/12/17 03:39:31;;;;;;;;;42.00;37.75;;;;;6.29;74.83;103728.63;5092238;27;45275;-56
2023/12/17 03:41:56;;;;;;;;;49.50;38.50;;;;;6.28;74.60;103724.19;5092808;27;45558;-55
2023/12/17 03:44:21;;;;;;;;;41.33;34.33;;;;;6.28;75.11;103724.19;5090963;27;73883;-56
2023/12/17 03:46:46;;;;;;;;;45.00;37.25;;;;;6.27;75.13;103725.06;5058845;28;69160;-58
2023/12/17 03:49:12;;;;;;;;;35.50;32.50;;;;;6.25;75.54;103724.16;5058367;28;63370;-57
2023/12/17 03:51:37;;;;;;;;;48.50;40.50;;;;;6.24;74.88;103719.75;5057416;28;69953;-57
2023/12/17 03:54:03;;;;;;;;;50.00;40.75;;;;;6.22;75.14;103721.47;5059583;28;45548;-57
2023/12/17 03:56:28;;;;;;;;;48.00;38.67;;;;;6.20;75.29;103710.88;5089534;27;69845;-57
2023/12/17 03:58:53;;;;;;;;;43.67;36.33;;;;;6.19;75.06;103717.03;5058681;28;68800;-56
2023/12/17 04:01:19;;;;;;;;;47.00;39.75;;;;;6.16;75.32;103710.81;5090677;27;70790;-57
2023/12/17 04:03:44;;;;;;;;;42.25;37.00;;;;;6.14;75.21;103705.53;5059234;28;46076;-57
2023/12/17 04:06:09;;;;;;;;;42.00;34.00;;;;;6.15;75.06;103703.75;5058393;28;67234;-57
2023/12/17 04:08:35;;;;;;;;;42.33;35.00;;;;;6.13;75.38;103704.59;5059238;28;45372;-56
2023/12/17 04:11:00;;;;;;;;;42.33;38.33;;;;;6.12;75.57;103704.59;5059482;28;45441;-57
2023/12/17 04:13:26;;;;;;;;;39.67;30.00;;;;;6.09;75.29;103705.44;5091029;27;45363;-56
2023/12/17 04:15:51;;;;;;;;;43.50;36.00;;;;;6.09;75.01;103704.56;5058070;28;45309;-57
2023/12/17 04:18:16;;;;;;;;;42.33;37.00;;;;;6.08;75.51;103697.50;5058837;28;45538;-56
2023/12/17 04:20:42;;;;;;;;;47.00;38.33;;;;;6.06;75.27;103697.47;5059103;28;45711;-56
2023/12/17 04:23:07;;;;;;;;;47.00;37.00;;;;;6.06;75.48;103694.81;5091253;27;57019;-57
2023/12/17 04:25:33;;;;;;;;;42.00;36.00;;;;;6.04;75.54;103693.03;5058587;28;45458;-56
2023/12/17 04:27:58;;;;;;;;;42.67;35.33;;;;;6.03;75.51;103688.59;5086996;27;45383;-57
2023/12/17 04:30:23;;;;;;;;;38.33;34.33;;;;;6.01;75.31;103688.59;5058833;28;45323;-57
2023/12/17 04:32:49;;;;;;;;;36.67;30.33;;;;;6.01;75.72;103696.50;5058812;28;45894;-57
2023/12/17 04:35:15;;;;;;;;;44.00;35.75;;;;;5.99;75.09;103690.31;5055993;28;73172;-57
2023/12/17 04:37:40;;;;;;;;;47.75;40.00;;;;;5.97;75.70;103700.81;5059043;28;45380;-56
2023/12/17 04:40:06;;;;;;;;;38.67;33.00;;;;;5.96;75.45;103695.50;5056781;28;70341;-57
2023/12/17 04:42:32;;;;;;;;;32.67;31.33;;;;;5.96;75.63;103701.69;5058366;28;46397;-56
2023/12/17 04:44:57;;;;;;;;;37.00;33.67;;;;;5.97;75.53;103692.88;5056214;28;45371;-56
2023/12/17 04:47:22;;;;;;;;;25.33;22.67;;;;;5.99;75.31;103692.94;5057132;28;68822;-57
2023/12/17 04:49:48;;;;;;;;;31.67;28.00;;;;;5.98;75.37;103699.09;5057124;28;45392;-57
2023/12/17 04:52:13;;;;;;;;;30.00;25.67;;;;;6.00;75.36;103696.47;5057439;28;74530;-57
2023/12/17 04:54:38;;;;;;;;;29.33;28.00;;;;;6.01;74.88;103698.25;5057484;28;72344;-57
2023/12/17 04:57:04;;;;;;;;;26.33;24.33;;;;;6.01;75.47;103691.22;5057439;28;45479;-57
2023/12/17 04:59:29;;;;;;;;;20.00;19.00;;;;;6.01;75.31;103688.59;5057882;28;45188;-56
2023/12/17 05:01:54;;;;;;;;;28.67;27.33;;;;;6.02;75.25;103694.75;5056532;28;75671;-56
2023/12/17 05:04:20;;;;;;;;;25.33;24.67;;;;;6.01;75.25;103690.31;5056764;28;69963;-56
2023/12/17 05:06:45;;;;;;;;;28.33;25.00;;;;;6.00;75.16;103692.09;5059146;28;62275;-55
2023/12/17 05:09:11;;;;;;;;;23.00;21.00;;;;;5.99;74.92;103679.72;5061325;28;45336;-56
2023/12/17 05:11:36;;;;;;;;;26.67;24.00;;;;;6.01;74.84;103680.66;5060838;28;72256;-57
2023/12/17 05:14:01;;;;;;;;;22.00;20.67;;;;;6.00;74.69;103676.22;5061076;28;70104;-57
2023/12/17 05:16:27;;;;;;;;;26.00;20.33;;;;;6.00;74.82;103689.44;5061632;28;45318;-56
2023/12/17 05:18:52;;;;;;;;;22.00;19.33;;;;;6.01;74.76;103693.88;5061792;28;45390;-57
2023/12/17 05:21:17;;;;;;;;;22.00;22.00;;;;;6.01;74.93;103695.59;5061225;28;45382;-56
2023/12/17 05:23:43;;;;;;;;;22.00;21.67;;;;;5.98;74.33;103693.81;5061478;28;50978;-56
2023/12/17 05:26:09;;;;;;;;;23.67;22.00;;;;;5.98;74.74;103691.16;5061808;28;45481;-56
2023/12/17 05:28:34;;;;;;;;;22.00;20.00;;;;;5.96;74.34;103695.50;5061176;28;45560;-57
2023/12/17 05:31:00;;;;;;;;;28.00;20.00;;;;;5.95;74.52;103704.31;5061092;28;45259;-55
2023/12/17 05:33:25;;;;;;;;;23.33;22.33;;;;;5.92;74.58;103702.50;5059368;28;45417;-57
2023/12/17 05:35:50;;;;;;;;;21.00;21.00;;;;;5.92;74.53;103709.56;5060896;28;57064;-57
2023/12/17 05:38:16;;;;;;;;;18.00;16.00;;;;;5.90;74.65;103706.84;5058840;28;70868;-57
2023/12/17 05:40:42;;;;;;;;;23.00;21.00;;;;;5.89;74.30;103701.56;5073973;28;47387;-57
2023/12/17 05:43:08;;;;;;;;;19.67;17.67;;;;;5.87;74.63;103701.53;5060901;28;45641;-57
2023/12/17 05:45:33;;;;;;;;;27.33;20.00;;;;;5.86;74.56;103705.03;5061069;28;45326;-55
2023/12/17 05:47:58;;;;;;;;;23.67;23.67;;;;;5.83;74.33;103705.00;5061238;28;45470;-57
2023/12/17 05:50:24;;;;;;;;;22.67;21.00;;;;;5.80;74.83;103705.84;5060057;28;68021;-57
2023/12/17 05:52:49;;;;;;;;;33.00;24.00;;;;;5.78;74.58;103709.31;5061509;28;45298;-56
2023/12/17 05:55:15;;;;;;;;;26.00;23.33;;;;;5.75;74.74;103712.78;5061002;28;45434;-56
2023/12/17 05:57:42;;;;;;;;;25.00;21.67;;;;;5.72;74.94;103710.13;5060995;28;45371;-57
2023/12/17 06:00:10;;;;;;;;;25.67;24.33;;;;;5.71;74.88;103710.06;5061059;28;46357;-57
2023/12/17 06:02:35;;;;;;;;;29.00;28.00;;;;;5.69;74.90;103707.41;5060671;28;45346;-55
2023/12/17 06:05:01;;;;;;;;;21.33;20.00;;;;;5.68;74.67;103712.66;5061283;28;45433;-56
2023/12/17 06:07:26;;;;;;;;;25.33;21.33;;;;;5.65;74.90;103705.56;5058207;28;58770;-56
2023/12/17 06:09:51;;;;;;;;;27.33;23.00;;;;;5.63;75.32;103709.94;5060214;28;64751;-56
2023/12/17 06:12:17;;;;;;;;;34.67;25.67;;;;;5.60;75.21;103708.13;5060267;28;45536;-57
2023/12/17 06:14:42;;;;;;;;;28.67;25.00;;;;;5.60;75.22;103707.25;5060192;28;68125;-56
2023/12/17 06:17:08;;;;;;;;;24.00;22.67;;;;;5.59;75.08;103703.72;5060106;28;67298;-56
2023/12/17 06:19:33;;;;;;;;;22.00;19.00;;;;;5.59;75.15;103701.09;5058941;28;55812;-57
2023/12/17 06:22:01;;;;;;;;;25.33;16.67;;;;;5.57;75.13;103705.44;5059060;28;45621;-56
2023/12/17 06:24:26;;;;;;;;;26.00;20.33;;;;;5.56;75.30;103705.41;5056497;28;45815;-56
2023/12/17 06:26:53;;;;;;;;;34.33;27.33;;;;;5.54;75.11;103720.34;5091239;27;70227;-56
2023/12/17 06:29:19;;;;;;;;;27.00;21.00;;;;;5.53;74.68;103716.81;5060023;28;45489;-56
2023/12/17 06:31:44;;;;;;;;;26.33;19.67;;;;;5.51;74.82;103709.72;5060692;28;45408;-56
2023/12/17 06:34:09;;;;;;;;;19.00;19.00;;;;;5.48;74.68;103715.84;5057231;28;68968;-56
2023/12/17 06:36:35;;;;;;;;;25.67;20.67;;;;;5.45;74.83;103715.81;5058540;28;48556;-55
2023/12/17 06:39:00;;;;;;;;;22.33;20.67;;;;;5.44;74.78;103714.03;5059823;28;75464;-55
2023/12/17 06:41:25;;;;;;;;;20.00;20.00;;;;;5.40;75.17;103707.78;5057498;28;65867;-55
2023/12/17 06:43:51;;;;;;;;;26.67;25.00;;;;;5.38;74.95;103712.13;5059619;28;65942;-55
2023/12/17 06:46:16;;;;;;;;;25.33;21.67;;;;;5.36;75.10;103718.25;5059685;28;70503;-56
2023/12/17 06:48:43;;;;;;;;;24.00;21.00;;;;;5.35;74.85;103713.84;5061060;28;45791;-56
2023/12/17 06:51:08;;;;;;;;;21.67;20.67;;;;;5.34;75.10;103709.44;5042249;28;45521;-57
2023/12/17 06:53:34;;;;;;;;;20.67;18.33;;;;;5.30;74.87;103719.91;5060113;28;45270;-56
2023/12/17 06:55:59;;;;;;;;;19.33;14.00;;;;;5.28;75.37;103713.72;5059829;28;58098;-57
2023/12/17 06:58:24;;;;;;;;;22.33;20.33;;;;;5.27;75.51;103716.34;5062743;28;45313;-55
2023/12/17 07:00:50;;;;;;;;;16.33;12.00;;;;;5.26;75.47;103709.28;5060097;28;45316;-56
2023/12/17 07:03:18;;;;;;;;;24.00;21.67;;;;;5.24;75.59;103711.00;5040878;28;70591;-56
2023/12/17 07:05:44;;;;;;;;;26.33;20.00;;;;;5.23;75.46;103709.25;5062489;28;45350;-56
2023/12/17 07:08:10;;;;;;;;;19.00;18.33;;;;;5.21;75.59;103706.53;5066659;28;45451;-56
2023/12/17 07:10:35;;;;;;;;;25.33;22.33;;;;;5.21;75.70;103705.66;5061869;28;45552;-56
2023/12/17 07:13:00;;;;;;;;;20.67;18.33;;;;;5.22;75.10;103712.72;5064986;28;67647;-55
2023/12/17 07:15:26;;;;;;;;;18.67;17.67;;;;;5.21;75.40;103711.81;5060376;27;66380;-56
2023/12/17 07:17:51;;;;;;;;;23.67;21.00;;;;;5.22;75.63;103710.09;5063300;28;45996;-56
2023/12/17 07:20:17;;;;;;;;;15.67;15.00;;;;;5.21;75.38;103703.03;5058965;28;47667;-56
2023/12/17 07:22:42;;;;;;;;;20.33;19.33;;;;;5.20;74.98;103710.06;5067762;28;45224;-56
2023/12/17 07:25:09;;;;;;;;;19.00;19.00;;;;;5.20;75.25;103706.53;5058757;27;45441;-55
2023/12/17 07:27:34;;;;;;;;;16.33;16.33;;;;;5.19;75.40;103700.38;5058829;28;45397;-55
2023/12/17 07:29:59;;;;;;;;;19.67;17.33;;;;;5.19;75.19;103710.03;5059406;28;45600;-56
2023/12/17 07:32:24;;;;;;;;;15.67;15.67;;;;;5.17;74.97;103702.06;5062644;28;65741;-56
2023/12/17 07:34:50;;;;;;;;;20.00;18.00;;;;;5.17;75.08;103699.44;5058481;27;67196;-56
2023/12/17 07:37:16;;;;;;;;;15.67;14.67;;;;;5.17;74.98;103688.88;5064821;28;74898;-57
2023/12/17 07:39:41;;;;;;;;;23.33;18.00;;;;;5.15;75.06;103701.19;5056945;28;45850;-56
2023/12/17 07:42:06;;;;;;;;;17.00;17.00;;;;;5.16;75.25;103697.66;5060808;28;45548;-56
2023/12/17 07:44:32;;;;;;;;;13.33;12.33;;;;;5.14;74.96;103695.00;5058415;28;46120;-54
2023/12/17 07:46:57;;;;;;;;;26.00;21.33;;;;;5.14;75.40;103697.63;5060711;28;75651;-54
2023/12/17 07:49:23;;;;;;;;;25.33;18.67;;;;;5.14;75.00;103695.00;5057579;28;45825;-54
2023/12/17 07:51:49;;;;;;;;;20.67;17.33;;;;;5.14;75.12;103696.75;5059499;27;45587;-54
2023/12/17 07:54:15;;;;;;;;;17.33;14.33;;;;;5.14;75.10;103692.34;5057148;28;45277;-55
2023/12/17 07:56:40;;;;;;;;;16.67;14.67;;;;;5.15;75.81;103687.97;5062312;28;45525;-55
2023/12/17 07:59:05;;;;;;;;;21.00;18.00;;;;;5.14;75.21;103695.00;5057412;28;62991;-56
2023/12/17 08:01:31;;;;;;;;;23.33;20.00;;;;;5.16;74.96;103691.50;5073386;27;45776;-55
2023/12/17 08:03:57;;;;;;;;;15.67;15.67;;;;;5.16;75.48;103691.50;5057516;28;45611;-54
2023/12/17 08:06:23;;;;;;;;;22.33;18.33;;;;;5.17;75.62;103688.00;5057142;28;75398;-53
2023/12/17 08:08:49;;;;;;;;;19.67;16.67;;;;;5.19;75.36;103691.53;5058832;28;45332;-55
2023/12/17 08:11:15;;;;;;;;;14.33;13.00;;;;;5.21;75.50;103692.47;5058496;28;45347;-55
2023/12/17 08:13:40;;;;;;;;;22.33;17.00;;;;;5.23;75.41;103694.28;5051985;28;45788;-57
2023/12/17 08:16:06;;;;;;;;;18.33;17.67;;;;;5.25;75.22;103696.94;5064190;28;74475;-55
2023/12/17 08:18:31;;;;;;;;;18.67;16.00;;;;;5.26;75.42;103693.44;5089141;27;45336;-55
2023/12/17 08:20:57;;;;;;;;;16.00;12.33;;;;;5.26;75.32;103690.81;5070766;28;45661;-58
2023/12/17 08:23:23;;;;;;;;;12.33;11.67;;;;;5.29;75.49;103694.41;5071331;27;45604;-59
2023/12/17 08:25:49;;;;;;;;;17.67;13.33;;;;;5.30;75.26;103701.44;5056988;28;45654;-61
2023/12/17 08:28:14;;;;;;;;;18.00;18.00;;;;;5.32;75.22;103698.84;5057704;28;45352;-61
2023/12/17 08:30:39;;;;;;;;;18.67;14.33;;;;;5.34;75.30;103704.16;5084069;27;45435;-61
2023/12/17 08:33:05;;;;;;;;;20.00;16.67;;;;;5.36;75.36;103705.97;5058920;28;53121;-61
2023/12/17 08:35:31;;;;;;;;;23.00;16.33;;;;;5.40;75.36;103697.22;5090774;27;45365;-61
2023/12/17 08:38:03;;;;;;;;;16.00;13.33;;;;;5.42;75.05;103702.53;5087862;27;45367;-60
2023/12/17 08:40:29;;;;;;;;;16.33;16.00;;;;;5.44;74.67;103704.34;5056403;28;45471;-60
2023/12/17 08:42:55;;;;;;;;;14.33;13.00;;;;;5.46;74.87;103692.06;5056293;28;45472;-63
2023/12/17 08:45:20;;;;;;;;;18.00;13.00;;;;;5.49;75.13;103691.22;5055132;28;75506;-63
2023/12/17 08:47:45;;;;;;;;;13.33;13.00;;;;;5.54;75.00;103691.28;5057655;28;66136;-63
2023/12/17 08:50:11;;;;;;;;;18.33;16.00;;;;;5.57;74.93;103694.88;5056803;28;45362;-63
2023/12/17 08:52:38;;;;;;;;;13.67;13.67;;;;;5.62;74.71;103689.69;5058635;28;45348;-63
2023/12/17 08:55:03;;;;;;;;;13.33;12.67;;;;;5.67;74.42;103689.75;5058182;28;46189;-63
2023/12/17 08:57:29;;;;;;;;;22.00;20.67;;;;;5.70;74.50;103688.06;5056313;28;45295;-63
2023/12/17 08:59:54;;;;;;;;;18.67;16.00;;;;;5.74;74.53;103689.88;5053554;28;69907;-62
2023/12/17 09:02:19;;;;;;;;;18.67;15.00;;;;;5.76;73.96;103690.81;5071957;28;70512;-63
2023/12/17 09:04:45;;;;;;;;;18.33;17.00;;;;;5.78;73.83;103694.34;5057642;28;45422;-63
2023/12/17 09:07:10;;;;;;;;;18.33;13.00;;;;;5.82;73.88;103689.13;5056382;28;45676;-62
2023/12/17 09:09:35;;;;;;;;;18.67;14.67;;;;;5.84;74.15;103693.56;5056830;28;69458;-61
2023/12/17 09:12:01;;;;;;;;;16.00;12.00;;;;;5.89;74.17;103688.34;5055845;28;68593;-61
2023/12/17 09:14:26;;;;;;;;;16.00;12.00;;;;;5.92;73.65;103680.50;5054164;28;74495;-61
2023/12/17 09:16:51;;;;;;;;;20.67;19.67;;;;;5.96;73.68;103682.31;5055236;28;53261;-61
2023/12/17 09:19:17;;;;;;;;;23.33;18.00;;;;;5.96;73.42;103675.25;5055928;28;59352;-61
2023/12/17 09:21:42;;;;;;;;;19.67;18.00;;;;;6.00;73.59;103680.59;5090451;27;67878;-61
2023/12/17 09:24:07;;;;;;;;;16.67;14.67;;;;;6.03;73.27;103672.75;5089014;27;64080;-61
2023/12/17 09:26:33;;;;;;;;;14.67;12.00;;;;;6.06;73.30;103676.31;5057152;28;45631;-61
2023/12/17 09:28:59;;;;;;;;;18.33;18.33;;;;;6.10;73.27;103680.78;5057860;28;52343;-61
2023/12/17 09:31:24;;;;;;;;;19.33;14.67;;;;;6.13;72.97;103680.81;5089962;27;45721;-62
2023/12/17 09:33:49;;;;;;;;;22.67;17.67;;;;;6.18;72.88;103691.47;5083089;27;62892;-61
2023/12/17 09:36:15;;;;;;;;;15.00;14.67;;;;;6.23;73.20;103691.53;5053262;28;68930;-62
2023/12/17 09:38:42;;;;;;;;;18.00;17.00;;;;;6.27;73.00;103688.97;5062562;28;45315;-62
2023/12/17 09:41:08;;;;;;;;;19.00;15.67;;;;;6.31;72.72;103686.34;5057321;28;45444;-62
2023/12/17 09:43:33;;;;;;;;;15.33;14.67;;;;;6.35;72.85;103683.78;5089156;27;46479;-62
2023/12/17 09:45:59;;;;;;;;;21.00;19.00;;;;;6.41;72.69;103682.97;5053560;28;59103;-62
2023/12/17 09:48:25;;;;;;;;;18.33;17.00;;;;;6.52;72.37;103688.38;5088783;27;45418;-62
2023/12/17 09:50:50;;;;;;;;;25.67;23.33;;;;;6.94;72.59;103685.38;5084345;27;45625;-62
2023/12/17 09:53:15;;;;;;;;;25.33;15.00;;;;;7.90;71.38;103685.34;5057245;28;74775;-62
2023/12/17 09:55:41;;;;;;;;;18.67;13.67;;;;;8.94;70.19;103677.09;5088913;27;73366;-64
2023/12/17 09:58:06;;;;;;;;;22.00;15.67;;;;;9.97;67.58;103677.13;5037800;28;45849;-64
2023/12/17 10:00:32;;;;;;;;;18.00;14.67;;;;;10.80;65.12;103674.19;5093422;27;45815;-63
2023/12/17 10:03:02;;;;;;;;;17.67;15.33;;;;;11.56;63.76;103671.00;5087190;27;45475;-63
2023/12/17 10:05:27;;;;;;;;;15.00;14.00;;;;;12.25;61.08;103672.13;5058581;28;45457;-63
2023/12/17 10:07:55;;;;;;;;;16.33;13.33;;;;;12.81;61.16;103669.63;5060977;28;45216;-63
2023/12/17 10:10:20;;;;;;;;;14.00;14.00;;;;;13.29;59.04;103660.03;5059497;28;45540;-64
2023/12/17 10:12:45;;;;;;;;;18.00;17.33;;;;;13.66;55.46;103667.47;5058284;28;70795;-63
2023/12/17 10:15:11;;;;;;;;;18.33;14.00;;;;;13.81;55.92;103663.66;5092560;27;61115;-63
2023/12/17 10:17:37;;;;;;;;;14.67;13.33;;;;;13.63;52.67;103662.19;5057258;28;45427;-63
2023/12/17 10:20:03;;;;;;;;;2.00;2.00;;;;;13.09;53.11;103655.91;5059566;28;45362;-64
2023/12/17 10:22:28;;;;;;;;;18.67;18.67;;;;;12.64;55.96;103658.31;5058732;28;47228;-63
2023/12/17 10:24:53;;;;;;;;;17.67;16.33;;;;;12.72;56.17;103659.09;5058666;28;69707;-63
2023/12/17 10:27:20;;;;;;;;;18.33;15.33;;;;;13.06;56.21;103650.59;5058092;28;70616;-63
2023/12/17 10:29:50;;;;;;;;;16.33;16.00;;;;;13.43;53.64;103647.38;5093274;27;45509;-63
2023/12/17 10:32:26;;;;;;;;;17.33;16.67;;;;;13.68;53.29;103639.78;5090345;27;46307;-64
2023/12/17 10:34:52;;;;;;;;;21.67;19.33;;;;;13.99;52.65;103641.03;5059791;28;45508;-64
2023/12/17 10:37:20;;;;;;;;;17.33;13.00;;;;;14.35;51.79;103643.84;5075533;28;45444;-65
2023/12/17 10:39:49;;;;;;;;;17.00;14.67;;;;;14.54;51.65;103636.31;5059091;28;45812;-65
2023/12/17 10:42:17;;;;;;;;;17.00;14.67;;;;;14.69;50.56;103635.09;5058720;28;45586;-65
2023/12/17 10:44:44;;;;;;;;;17.67;16.67;;;;;14.80;49.12;103635.75;5092754;27;45258;-62
2023/12/17 10:47:11;;;;;;;;;17.67;14.67;;;;;14.71;47.80;103622.56;5042238;28;46433;-61
2023/12/17 10:49:36;;;;;;;;;19.00;16.67;;;;;14.68;50.07;103617.31;5056883;28;45366;-61
2023/12/17 10:52:02;;;;;;;;;25.67;20.33;;;;;14.81;50.61;103609.81;5091781;27;75302;-61
2023/12/17 10:54:28;;;;;;;;;21.00;17.33;;;;;15.02;49.91;103600.41;5052416;28;45404;-61
2023/12/17 10:56:56;;;;;;;;;18.33;16.33;;;;;15.19;48.26;103597.31;5058380;28;45507;-61
2023/12/17 10:59:27;;;;;;;;;19.33;17.00;;;;;15.37;46.63;103596.84;5053711;28;47488;-63
2023/12/17 11:01:55;;;;;;;;;16.33;14.67;;;;;15.57;47.85;103595.44;5057874;28;46406;-63
2023/12/17 11:04:21;;;;;;;;;20.67;17.00;;;;;15.58;46.60;103589.16;5057069;28;45279;-63
2023/12/17 11:06:46;;;;;;;;;21.67;18.00;;;;;15.47;47.81;103585.88;5052054;28;45664;-61
2023/12/17 11:09:12;;;;;;;;;17.00;16.67;;;;;15.56;47.41;103582.94;5058004;28;57864;-59